CYSK

Sanikiluaq Airport

Airport
ICAO code
CYSK
IATA Code
YSK
Summary
ICAO Region
NAM
ICAO Territory
Location

Sanikiluaq, Nunavut

Serving
Sanikiluaq
Elevation
104 ft
Coordinates
56° 32' 16" N , 79° 14' 48" W
Metar
Observation
CYSK 111500Z 35014KT 15SM FEW050 10/07 A2990 RMK SC1 SLP128
Station
Sanikiluaq Airport
Date/Time
2022-08-11 15:00:00
Wind direction
350°
Wind speed
14 kts
Lowest cloud amount
few clouds
Temperature
10°C
Dew point
7°C
Humidity
81%
Weather condition
n/a

Sanikiluaq Airport is located at Sanikiluaq, Nunavut, Canada, and is operated by the Government of Nunavut. It is one of the few airports in Nunavut that uses magnetic headings for the runway rather than true headings.

Runways

Designator Length Width Surface Rops
9/27 1158 0 UNK No/No

Airport map

Aerial View

SKYbrary Partners:

Safety knowledge contributed by: